sensor_id;sensor_type;location;lat;lon;timestamp;temperature;humidity
19781;DHT22;10050;55.492;13.506;2024-03-23T00:54:37;5.90;99.90
19781;DHT22;10050;55.492;13.506;2024-03-23T00:57:03;5.80;99.90
19781;DHT22;10050;55.492;13.506;2024-03-23T00:59:28;5.80;99.90
19781;DHT22;10050;55.492;13.506;2024-03-23T01:01:54;5.80;99.90
19781;DHT22;10050;55.492;13.506;2024-03-23T01:04:21;5.70;99.90
19781;DHT22;10050;55.492;13.506;2024-03-23T01:06:47;5.80;99.90
19781;DHT22;10050;55.492;13.506;2024-03-23T01:09:18;5.80;99.90
19781;DHT22;10050;55.492;13.506;2024-03-23T01:11:43;5.80;99.90
19781;DHT22;10050;55.492;13.506;2024-03-23T01:14:09;5.80;99.90
19781;DHT22;10050;55.492;13.506;2024-03-23T01:16:38;5.70;99.90
19781;DHT22;10050;55.492;13.506;2024-03-23T01:19:03;5.70;99.90
19781;DHT22;10050;55.492;13.506;2024-03-23T01:21:29;5.70;99.90
19781;DHT22;10050;55.492;13.506;2024-03-23T01:23:55;5.70;99.90
19781;DHT22;10050;55.492;13.506;2024-03-23T01:26:22;5.70;99.90
19781;DHT22;10050;55.492;13.506;2024-03-23T01:28:50;5.70;99.90
19781;DHT22;10050;55.492;13.506;2024-03-23T01:31:16;5.70;99.90
19781;DHT22;10050;55.492;13.506;2024-03-23T01:33:41;5.70;99.90
19781;DHT22;10050;55.492;13.506;2024-03-23T01:36:09;5.80;99.90
19781;DHT22;10050;55.492;13.506;2024-03-23T01:38:35;5.70;99.90
19781;DHT22;10050;55.492;13.506;2024-03-23T01:41:01;5.70;99.90
19781;DHT22;10050;55.492;13.506;2024-03-23T01:43:27;5.70;99.90
19781;DHT22;10050;55.492;13.506;2024-03-23T01:45:52;5.70;99.90
19781;DHT22;10050;55.492;13.506;2024-03-23T01:48:20;5.70;99.90
19781;DHT22;10050;55.492;13.506;2024-03-23T01:50:46;5.70;99.90
19781;DHT22;10050;55.492;13.506;2024-03-23T01:53:12;5.70;99.90
19781;DHT22;10050;55.492;13.506;2024-03-23T01:55:40;5.60;99.90
19781;DHT22;10050;55.492;13.506;2024-03-23T01:58:06;5.70;99.90
19781;DHT22;10050;55.492;13.506;2024-03-23T02:00:32;5.60;99.90
19781;DHT22;10050;55.492;13.506;2024-03-23T02:02:58;5.60;99.90
19781;DHT22;10050;55.492;13.506;2024-03-23T02:05:23;5.60;99.90
19781;DHT22;10050;55.492;13.506;2024-03-23T02:07:50;5.60;99.90
19781;DHT22;10050;55.492;13.506;2024-03-23T02:10:16;5.60;99.90
19781;DHT22;10050;55.492;13.506;2024-03-23T02:12:42;5.50;99.90
19781;DHT22;10050;55.492;13.506;2024-03-23T02:15:07;5.60;99.90
19781;DHT22;10050;55.492;13.506;2024-03-23T02:17:36;5.60;99.90
19781;DHT22;10050;55.492;13.506;2024-03-23T02:20:02;5.50;99.90
19781;DHT22;10050;55.492;13.506;2024-03-23T02:22:37;5.50;99.90
19781;DHT22;10050;55.492;13.506;2024-03-23T02:25:05;5.50;99.90
19781;DHT22;10050;55.492;13.506;2024-03-23T02:27:31;5.40;99.90
19781;DHT22;10050;55.492;13.506;2024-03-23T02:29:57;5.40;99.90
19781;DHT22;10050;55.492;13.506;2024-03-23T02:32:22;5.40;99.90
19781;DHT22;10050;55.492;13.506;2024-03-23T02:34:48;5.40;99.90
19781;DHT22;10050;55.492;13.506;2024-03-23T02:37:16;5.40;99.90
19781;DHT22;10050;55.492;13.506;2024-03-23T02:39:42;5.40;99.90
19781;DHT22;10050;55.492;13.506;2024-03-23T02:42:07;5.40;99.90
19781;DHT22;10050;55.492;13.506;2024-03-23T02:44:33;5.30;99.90
19781;DHT22;10050;55.492;13.506;2024-03-23T02:46:59;5.20;99.90
19781;DHT22;10050;55.492;13.506;2024-03-23T02:49:26;5.20;99.90
19781;DHT22;10050;55.492;13.506;2024-03-23T02:51:52;5.20;99.90
19781;DHT22;10050;55.492;13.506;2024-03-23T02:54:17;5.10;99.90
19781;DHT22;10050;55.492;13.506;2024-03-23T02:56:43;5.10;99.90
19781;DHT22;10050;55.492;13.506;2024-03-23T02:59:08;5.10;99.90
19781;DHT22;10050;55.492;13.506;2024-03-23T03:01:34;5.10;99.90
19781;DHT22;10050;55.492;13.506;2024-03-23T03:04:00;5.00;99.90
19781;DHT22;10050;55.492;13.506;2024-03-23T03:06:26;5.00;99.90
19781;DHT22;10050;55.492;13.506;2024-03-23T03:08:54;5.10;99.90
19781;DHT22;10050;55.492;13.506;2024-03-23T03:11:20;5.00;99.90
19781;DHT22;10050;55.492;13.506;2024-03-23T03:13:45;5.00;99.90
19781;DHT22;10050;55.492;13.506;2024-03-23T03:16:11;5.00;99.90
19781;DHT22;10050;55.492;13.506;2024-03-23T03:18:37;4.90;99.90
19781;DHT22;10050;55.492;13.506;2024-03-23T03:21:04;4.90;99.90
19781;DHT22;10050;55.492;13.506;2024-03-23T03:23:31;5.00;99.90
19781;DHT22;10050;55.492;13.506;2024-03-23T03:25:57;4.90;99.90
19781;DHT22;10050;55.492;13.506;2024-03-23T03:28:23;4.90;99.90
19781;DHT22;10050;55.492;13.506;2024-03-23T03:30:49;4.80;99.90
19781;DHT22;10050;55.492;13.506;2024-03-23T03:33:14;4.80;99.90
19781;DHT22;10050;55.492;13.506;2024-03-23T03:35:40;4.90;99.90
19781;DHT22;10050;55.492;13.506;2024-03-23T03:38:06;4.80;99.90
19781;DHT22;10050;55.492;13.506;2024-03-23T03:40:31;4.80;99.90
19781;DHT22;10050;55.492;13.506;2024-03-23T03:42:57;4.80;99.90
19781;DHT22;10050;55.492;13.506;2024-03-23T03:45:22;4.80;99.90
19781;DHT22;10050;55.492;13.506;2024-03-23T03:47:48;4.70;99.90
19781;DHT22;10050;55.492;13.506;2024-03-23T03:50:16;4.70;99.90
19781;DHT22;10050;55.492;13.506;2024-03-23T03:52:42;4.70;99.90
19781;DHT22;10050;55.492;13.506;2024-03-23T03:55:13;4.80;99.90
19781;DHT22;10050;55.492;13.506;2024-03-23T03:57:42;4.70;99.90
19781;DHT22;10050;55.492;13.506;2024-03-23T04:00:08;4.70;99.90
19781;DHT22;10050;55.492;13.506;2024-03-23T04:02:37;4.70;99.90
19781;DHT22;10050;55.492;13.506;2024-03-23T04:05:03;4.70;99.90
19781;DHT22;10050;55.492;13.506;2024-03-23T04:07:29;4.70;99.90
19781;DHT22;10050;55.492;13.506;2024-03-23T04:09:55;4.70;99.90
19781;DHT22;10050;55.492;13.506;2024-03-23T04:12:20;4.70;99.90
19781;DHT22;10050;55.492;13.506;2024-03-23T04:14:46;4.70;99.90
19781;DHT22;10050;55.492;13.506;2024-03-23T04:17:12;4.60;99.90
19781;DHT22;10050;55.492;13.506;2024-03-23T04:19:37;4.60;99.90
19781;DHT22;10050;55.492;13.506;2024-03-23T04:22:03;4.60;99.90
19781;DHT22;10050;55.492;13.506;2024-03-23T04:24:29;4.60;99.90
19781;DHT22;10050;55.492;13.506;2024-03-23T04:26:55;4.50;99.90
19781;DHT22;10050;55.492;13.506;2024-03-23T04:29:20;4.50;99.90
19781;DHT22;10050;55.492;13.506;2024-03-23T04:31:46;4.50;99.90
19781;DHT22;10050;55.492;13.506;2024-03-23T04:34:13;4.50;99.90
19781;DHT22;10050;55.492;13.506;2024-03-23T04:36:38;4.50;99.90
19781;DHT22;10050;55.492;13.506;2024-03-23T04:39:05;4.50;99.90
19781;DHT22;10050;55.492;13.506;2024-03-23T04:41:34;4.50;99.90
19781;DHT22;10050;55.492;13.506;2024-03-23T04:44:01;4.50;99.90
19781;DHT22;10050;55.492;13.506;2024-03-23T04:46:27;4.50;99.90
19781;DHT22;10050;55.492;13.506;2024-03-23T04:48:53;4.60;99.90
19781;DHT22;10050;55.492;13.506;2024-03-23T04:51:24;4.50;99.90
19781;DHT22;10050;55.492;13.506;2024-03-23T04:53:50;4.50;99.90
19781;DHT22;10050;55.492;13.506;2024-03-23T04:56:16;4.60;99.90
19781;DHT22;10050;55.492;13.506;2024-03-23T04:58:42;4.50;99.90
19781;DHT22;10050;55.492;13.506;2024-03-23T05:01:08;4.50;99.90
19781;DHT22;10050;55.492;13.506;2024-03-23T05:03:34;4.50;99.90
19781;DHT22;10050;55.492;13.506;2024-03-23T05:06:00;4.50;99.90
19781;DHT22;10050;55.492;13.506;2024-03-23T05:08:25;4.40;99.90
19781;DHT22;10050;55.492;13.506;2024-03-23T05:10:51;4.50;99.90
19781;DHT22;10050;55.492;13.506;2024-03-23T05:13:17;4.50;99.90
19781;DHT22;10050;55.492;13.506;2024-03-23T05:15:43;4.50;99.90
19781;DHT22;10050;55.492;13.506;2024-03-23T05:18:09;4.50;99.90
19781;DHT22;10050;55.492;13.506;2024-03-23T05:20:35;4.40;99.90
19781;DHT22;10050;55.492;13.506;2024-03-23T05:23:01;4.40;99.90
19781;DHT22;10050;55.492;13.506;2024-03-23T05:25:27;4.50;99.90
19781;DHT22;10050;55.492;13.506;2024-03-23T05:27:52;4.50;99.90
19781;DHT22;10050;55.492;13.506;2024-03-23T05:30:18;4.50;99.90
19781;DHT22;10050;55.492;13.506;2024-03-23T05:32:44;4.60;99.90
19781;DHT22;10050;55.492;13.506;2024-03-23T05:35:10;4.60;99.90
19781;DHT22;10050;55.492;13.506;2024-03-23T05:37:36;4.70;99.90
19781;DHT22;10050;55.492;13.506;2024-03-23T05:40:03;4.70;99.90
19781;DHT22;10050;55.492;13.506;2024-03-23T05:42:29;4.70;99.90
19781;DHT22;10050;55.492;13.506;2024-03-23T05:44:55;4.70;99.90
19781;DHT22;10050;55.492;13.506;2024-03-23T05:47:20;4.80;99.90
19781;DHT22;10050;55.492;13.506;2024-03-23T05:49:49;4.80;99.90
19781;DHT22;10050;55.492;13.506;2024-03-23T05:52:18;4.80;99.90
19781;DHT22;10050;55.492;13.506;2024-03-23T05:54:43;5.00;99.90
19781;DHT22;10050;55.492;13.506;2024-03-23T05:57:09;5.00;99.90
19781;DHT22;10050;55.492;13.506;2024-03-23T05:59:35;5.00;99.90
19781;DHT22;10050;55.492;13.506;2024-03-23T06:02:00;5.00;99.90
19781;DHT22;10050;55.492;13.506;2024-03-23T06:04:26;5.00;99.90
19781;DHT22;10050;55.492;13.506;2024-03-23T06:06:52;5.00;99.90
19781;DHT22;10050;55.492;13.506;2024-03-23T06:09:18;5.10;99.90
19781;DHT22;10050;55.492;13.506;2024-03-23T06:11:44;5.30;99.90
19781;DHT22;10050;55.492;13.506;2024-03-23T06:14:10;5.50;99.90
19781;DHT22;10050;55.492;13.506;2024-03-23T06:16:36;5.70;99.90
19781;DHT22;10050;55.492;13.506;2024-03-23T06:19:01;5.80;99.90
19781;DHT22;10050;55.492;13.506;2024-03-23T06:21:32;5.80;99.90
19781;DHT22;10050;55.492;13.506;2024-03-23T06:23:58;5.90;99.90
19781;DHT22;10050;55.492;13.506;2024-03-23T06:26:24;5.90;99.90
19781;DHT22;10050;55.492;13.506;2024-03-23T06:28:50;5.90;99.90
19781;DHT22;10050;55.492;13.506;2024-03-23T06:31:15;5.90;99.90
19781;DHT22;10050;55.492;13.506;2024-03-23T06:33:41;5.90;99.90
19781;DHT22;10050;55.492;13.506;2024-03-23T06:36:09;5.90;99.90
19781;DHT22;10050;55.492;13.506;2024-03-23T06:38:35;6.00;99.90
19781;DHT22;10050;55.492;13.506;2024-03-23T06:41:05;6.00;99.90
19781;DHT22;10050;55.492;13.506;2024-03-23T06:43:45;6.10;99.90
19781;DHT22;10050;55.492;13.506;2024-03-23T06:46:11;6.20;99.90
19781;DHT22;10050;55.492;13.506;2024-03-23T06:48:36;6.30;99.90
19781;DHT22;10050;55.492;13.506;2024-03-23T06:51:02;6.40;99.90
19781;DHT22;10050;55.492;13.506;2024-03-23T06:53:29;6.40;99.90
19781;DHT22;10050;55.492;13.506;2024-03-23T06:55:55;6.40;99.90
19781;DHT22;10050;55.492;13.506;2024-03-23T06:58:22;6.60;99.90
19781;DHT22;10050;55.492;13.506;2024-03-23T07:00:48;6.90;99.90
19781;DHT22;10050;55.492;13.506;2024-03-23T07:03:15;7.30;99.90
19781;DHT22;10050;55.492;13.506;2024-03-23T07:05:40;7.40;99.90
19781;DHT22;10050;55.492;13.506;2024-03-23T07:08:07;7.30;99.90
19781;DHT22;10050;55.492;13.506;2024-03-23T07:10:32;7.20;99.90
19781;DHT22;10050;55.492;13.506;2024-03-23T07:12:58;7.40;99.90
19781;DHT22;10050;55.492;13.506;2024-03-23T07:15:24;7.50;99.90
19781;DHT22;10050;55.492;13.506;2024-03-23T07:17:50;7.60;99.90
19781;DHT22;10050;55.492;13.506;2024-03-23T07:20:18;7.80;99.90
19781;DHT22;10050;55.492;13.506;2024-03-23T07:22:50;8.00;99.90
19781;DHT22;10050;55.492;13.506;2024-03-23T07:25:18;8.10;99.90
19781;DHT22;10050;55.492;13.506;2024-03-23T07:27:44;8.50;99.90
19781;DHT22;10050;55.492;13.506;2024-03-23T07:30:09;9.00;99.90
19781;DHT22;10050;55.492;13.506;2024-03-23T07:32:35;9.40;99.90
19781;DHT22;10050;55.492;13.506;2024-03-23T07:35:01;9.60;99.90
19781;DHT22;10050;55.492;13.506;2024-03-23T07:37:27;10.00;99.90
19781;DHT22;10050;55.492;13.506;2024-03-23T07:39:53;10.10;99.90
19781;DHT22;10050;55.492;13.506;2024-03-23T07:42:18;10.30;99.90
19781;DHT22;10050;55.492;13.506;2024-03-23T07:44:44;10.80;99.90
19781;DHT22;10050;55.492;13.506;2024-03-23T07:47:09;11.70;99.90
19781;DHT22;10050;55.492;13.506;2024-03-23T07:49:35;12.70;99.90
19781;DHT22;10050;55.492;13.506;2024-03-23T07:52:00;13.40;99.90
19781;DHT22;10050;55.492;13.506;2024-03-23T07:54:26;14.00;99.90
19781;DHT22;10050;55.492;13.506;2024-03-23T07:56:54;13.80;99.90
19781;DHT22;10050;55.492;13.506;2024-03-23T07:59:20;13.30;99.90
19781;DHT22;10050;55.492;13.506;2024-03-23T08:01:46;12.70;99.90
19781;DHT22;10050;55.492;13.506;2024-03-23T08:04:12;12.20;99.90
19781;DHT22;10050;55.492;13.506;2024-03-23T08:06:41;11.90;99.90
19781;DHT22;10050;55.492;13.506;2024-03-23T08:09:07;11.70;99.90
19781;DHT22;10050;55.492;13.506;2024-03-23T08:11:36;11.60;99.90
19781;DHT22;10050;55.492;13.506;2024-03-23T08:14:04;11.40;99.90
19781;DHT22;10050;55.492;13.506;2024-03-23T08:16:31;10.90;99.90
19781;DHT22;10050;55.492;13.506;2024-03-23T08:18:57;10.60;99.90
19781;DHT22;10050;55.492;13.506;2024-03-23T08:21:25;10.40;99.90
19781;DHT22;10050;55.492;13.506;2024-03-23T08:23:51;10.00;99.90
19781;DHT22;10050;55.492;13.506;2024-03-23T08:26:17;9.90;99.90
19781;DHT22;10050;55.492;13.506;2024-03-23T08:28:43;9.60;99.90
19781;DHT22;10050;55.492;13.506;2024-03-23T08:31:11;9.50;99.90
19781;DHT22;10050;55.492;13.506;2024-03-23T08:33:37;9.50;99.90
19781;DHT22;10050;55.492;13.506;2024-03-23T08:36:06;9.50;99.90
19781;DHT22;10050;55.492;13.506;2024-03-23T08:38:32;9.30;99.90
19781;DHT22;10050;55.492;13.506;2024-03-23T08:41:08;9.30;99.90
19781;DHT22;10050;55.492;13.506;2024-03-23T08:43:41;9.30;99.90
19781;DHT22;10050;55.492;13.506;2024-03-23T08:46:14;9.40;99.90
19781;DHT22;10050;55.492;13.506;2024-03-23T08:48:44;9.60;99.90
19781;DHT22;10050;55.492;13.506;2024-03-23T08:51:12;9.80;99.90
19781;DHT22;10050;55.492;13.506;2024-03-23T08:53:39;10.20;99.90
19781;DHT22;10050;55.492;13.506;2024-03-23T08:56:09;10.50;99.90
19781;DHT22;10050;55.492;13.506;2024-03-23T08:58:38;11.20;99.90
19781;DHT22;10050;55.492;13.506;2024-03-23T09:01:12;11.80;99.90
19781;DHT22;10050;55.492;13.506;2024-03-23T09:04:01;12.60;99.90
19781;DHT22;10050;55.492;13.506;2024-03-23T09:07:31;12.70;99.90
19781;DHT22;10050;55.492;13.506;2024-03-23T09:16:34;13.60;99.90
19781;DHT22;10050;55.492;13.506;2024-03-23T09:19:00;13.80;99.90
19781;DHT22;10050;55.492;13.506;2024-03-23T09:21:26;14.50;99.90
19781;DHT22;10050;55.492;13.506;2024-03-23T09:23:53;14.90;99.90
19781;DHT22;10050;55.492;13.506;2024-03-23T09:26:19;14.80;99.90
19781;DHT22;10050;55.492;13.506;2024-03-23T09:28:48;15.20;99.90
19781;DHT22;10050;55.492;13.506;2024-03-23T09:31:16;15.20;99.90
19781;DHT22;10050;55.492;13.506;2024-03-23T09:33:42;15.40;99.90
19781;DHT22;10050;55.492;13.506;2024-03-23T09:36:08;15.70;99.90
19781;DHT22;10050;55.492;13.506;2024-03-23T09:38:34;16.30;99.90
19781;DHT22;10050;55.492;13.506;2024-03-23T09:41:00;16.50;99.90
19781;DHT22;10050;55.492;13.506;2024-03-23T09:43:26;16.80;99.90
19781;DHT22;10050;55.492;13.506;2024-03-23T09:45:54;16.70;99.90
19781;DHT22;10050;55.492;13.506;2024-03-23T09:48:20;16.40;99.90
19781;DHT22;10050;55.492;13.506;2024-03-23T09:50:46;16.30;99.90
19781;DHT22;10050;55.492;13.506;2024-03-23T09:53:13;15.90;99.90
19781;DHT22;10050;55.492;13.506;2024-03-23T09:55:43;16.20;99.90
19781;DHT22;10050;55.492;13.506;2024-03-23T09:58:13;15.70;99.90
19781;DHT22;10050;55.492;13.506;2024-03-23T10:00:39;16.10;99.90
19781;DHT22;10050;55.492;13.506;2024-03-23T10:03:05;15.80;99.90
19781;DHT22;10050;55.492;13.506;2024-03-23T10:05:32;16.20;99.90
19781;DHT22;10050;55.492;13.506;2024-03-23T10:08:00;16.40;99.90
19781;DHT22;10050;55.492;13.506;2024-03-23T10:10:26;16.30;99.90
19781;DHT22;10050;55.492;13.506;2024-03-23T10:12:51;16.40;99.90
19781;DHT22;10050;55.492;13.506;2024-03-23T10:15:22;16.20;99.90
19781;DHT22;10050;55.492;13.506;2024-03-23T10:17:47;16.20;99.90
19781;DHT22;10050;55.492;13.506;2024-03-23T10:20:19;16.40;99.90
19781;DHT22;10050;55.492;13.506;2024-03-23T10:22:45;16.80;99.90
19781;DHT22;10050;55.492;13.506;2024-03-23T10:25:11;17.10;99.90
19781;DHT22;10050;55.492;13.506;2024-03-23T10:27:37;17.00;99.90
19781;DHT22;10050;55.492;13.506;2024-03-23T10:30:12;16.70;99.90
19781;DHT22;10050;55.492;13.506;2024-03-23T10:32:38;16.20;99.90
19781;DHT22;10050;55.492;13.506;2024-03-23T10:35:17;16.30;99.90
19781;DHT22;10050;55.492;13.506;2024-03-23T10:37:49;16.50;99.90
19781;DHT22;10050;55.492;13.506;2024-03-23T10:40:17;16.80;99.90
19781;DHT22;10050;55.492;13.506;2024-03-23T10:42:44;16.90;99.90
19781;DHT22;10050;55.492;13.506;2024-03-23T10:45:10;17.20;99.90
19781;DHT22;10050;55.492;13.506;2024-03-23T10:47:36;16.70;99.90
19781;DHT22;10050;55.492;13.506;2024-03-23T10:50:03;16.30;99.90
19781;DHT22;10050;55.492;13.506;2024-03-23T10:52:31;15.80;99.90
19781;DHT22;10050;55.492;13.506;2024-03-23T10:54:58;15.70;99.90
19781;DHT22;10050;55.492;13.506;2024-03-23T10:57:50;15.90;99.90
19781;DHT22;10050;55.492;13.506;2024-03-23T11:00:16;16.00;99.90
19781;DHT22;10050;55.492;13.506;2024-03-23T11:02:41;15.60;99.90
19781;DHT22;10050;55.492;13.506;2024-03-23T11:05:31;15.60;99.90
19781;DHT22;10050;55.492;13.506;2024-03-23T11:07:57;15.10;99.90
19781;DHT22;10050;55.492;13.506;2024-03-23T11:10:28;14.80;99.90
19781;DHT22;10050;55.492;13.506;2024-03-23T11:12:57;14.50;99.90
19781;DHT22;10050;55.492;13.506;2024-03-23T11:15:23;13.90;99.90
19781;DHT22;10050;55.492;13.506;2024-03-23T11:18:07;13.40;99.90
19781;DHT22;10050;55.492;13.506;2024-03-23T11:20:37;13.20;99.90
19781;DHT22;10050;55.492;13.506;2024-03-23T11:23:03;13.60;99.90
19781;DHT22;10050;55.492;13.506;2024-03-23T11:25:29;13.40;99.90
19781;DHT22;10050;55.492;13.506;2024-03-23T11:27:56;13.50;99.90
19781;DHT22;10050;55.492;13.506;2024-03-23T11:30:24;13.60;99.90
19781;DHT22;10050;55.492;13.506;2024-03-23T11:32:51;13.60;99.90
19781;DHT22;10050;55.492;13.506;2024-03-23T11:35:33;13.40;99.90
19781;DHT22;10050;55.492;13.506;2024-03-23T11:38:07;13.60;99.90
19781;DHT22;10050;55.492;13.506;2024-03-23T11:40:45;12.80;99.90
19781;DHT22;10050;55.492;13.506;2024-03-23T11:43:21;12.30;99.90
19781;DHT22;10050;55.492;13.506;2024-03-23T11:45:49;12.10;99.90
19781;DHT22;10050;55.492;13.506;2024-03-23T11:48:24;11.80;99.90
19781;DHT22;10050;55.492;13.506;2024-03-23T11:50:56;11.80;99.90
19781;DHT22;10050;55.492;13.506;2024-03-23T11:53:23;11.70;99.90
19781;DHT22;10050;55.492;13.506;2024-03-23T11:55:50;11.80;99.90
19781;DHT22;10050;55.492;13.506;2024-03-23T11:58:17;12.10;99.90
19781;DHT22;10050;55.492;13.506;2024-03-23T12:00:50;12.20;99.90
19781;DHT22;10050;55.492;13.506;2024-03-23T12:03:19;12.60;99.90
19781;DHT22;10050;55.492;13.506;2024-03-23T12:05:52;13.20;99.90
19781;DHT22;10050;55.492;13.506;2024-03-23T12:11:16;13.00;99.90
19781;DHT22;10050;55.492;13.506;2024-03-23T12:13:52;12.80;99.90
19781;DHT22;10050;55.492;13.506;2024-03-23T12:16:28;12.30;99.90
19781;DHT22;10050;55.492;13.506;2024-03-23T12:19:05;12.20;99.90
19781;DHT22;10050;55.492;13.506;2024-03-23T12:21:31;12.30;99.90
19781;DHT22;10050;55.492;13.506;2024-03-23T12:23:56;12.50;99.90
19781;DHT22;10050;55.492;13.506;2024-03-23T12:26:22;12.40;99.90
19781;DHT22;10050;55.492;13.506;2024-03-23T12:28:48;12.20;99.90
19781;DHT22;10050;55.492;13.506;2024-03-23T12:31:14;12.30;99.90
19781;DHT22;10050;55.492;13.506;2024-03-23T12:33:39;12.10;99.90
19781;DHT22;10050;55.492;13.506;2024-03-23T12:36:05;11.80;99.90
19781;DHT22;10050;55.492;13.506;2024-03-23T12:38:31;11.90;99.90
19781;DHT22;10050;55.492;13.506;2024-03-23T12:40:56;11.70;99.90
19781;DHT22;10050;55.492;13.506;2024-03-23T12:43:22;11.50;99.90
19781;DHT22;10050;55.492;13.506;2024-03-23T12:45:48;11.40;99.90
19781;DHT22;10050;55.492;13.506;2024-03-23T12:48:14;11.20;99.90
19781;DHT22;10050;55.492;13.506;2024-03-23T12:50:40;11.40;99.90
19781;DHT22;10050;55.492;13.506;2024-03-23T12:53:06;11.60;99.90
19781;DHT22;10050;55.492;13.506;2024-03-23T12:55:31;11.80;99.90
19781;DHT22;10050;55.492;13.506;2024-03-23T12:57:57;12.30;99.90
19781;DHT22;10050;55.492;13.506;2024-03-23T13:00:22;12.30;99.90
19781;DHT22;10050;55.492;13.506;2024-03-23T13:02:48;12.20;99.90
19781;DHT22;10050;55.492;13.506;2024-03-23T13:05:14;12.20;99.90
19781;DHT22;10050;55.492;13.506;2024-03-23T13:07:40;11.80;99.90
19781;DHT22;10050;55.492;13.506;2024-03-23T13:10:09;11.90;99.90
19781;DHT22;10050;55.492;13.506;2024-03-23T13:12:35;12.10;99.90
19781;DHT22;10050;55.492;13.506;2024-03-23T13:15:01;12.20;99.90
19781;DHT22;10050;55.492;13.506;2024-03-23T13:17:27;12.30;99.90
19781;DHT22;10050;55.492;13.506;2024-03-23T13:19:56;12.30;99.90
19781;DHT22;10050;55.492;13.506;2024-03-23T13:22:22;12.20;99.90
19781;DHT22;10050;55.492;13.506;2024-03-23T13:24:48;12.20;99.90
19781;DHT22;10050;55.492;13.506;2024-03-23T13:27:13;12.10;99.90
19781;DHT22;10050;55.492;13.506;2024-03-23T13:29:39;12.10;99.90
19781;DHT22;10050;55.492;13.506;2024-03-23T13:32:05;12.00;99.90
19781;DHT22;10050;55.492;13.506;2024-03-23T13:34:31;11.80;99.90
19781;DHT22;10050;55.492;13.506;2024-03-23T13:36:58;11.30;99.90
19781;DHT22;10050;55.492;13.506;2024-03-23T13:39:24;11.00;99.90
19781;DHT22;10050;55.492;13.506;2024-03-23T13:41:50;10.60;99.90
19781;DHT22;10050;55.492;13.506;2024-03-23T13:44:16;10.40;99.90
19781;DHT22;10050;55.492;13.506;2024-03-23T13:46:43;10.40;99.90
19781;DHT22;10050;55.492;13.506;2024-03-23T13:51:52;10.50;99.90
19781;DHT22;10050;55.492;13.506;2024-03-23T13:54:18;10.30;99.90
19781;DHT22;10050;55.492;13.506;2024-03-23T13:56:44;10.30;99.90
19781;DHT22;10050;55.492;13.506;2024-03-23T13:59:09;10.10;99.90
19781;DHT22;10050;55.492;13.506;2024-03-23T14:01:43;10.10;99.90
19781;DHT22;10050;55.492;13.506;2024-03-23T14:04:08;10.00;99.90
19781;DHT22;10050;55.492;13.506;2024-03-23T14:06:37;10.20;99.90
19781;DHT22;10050;55.492;13.506;2024-03-23T14:09:05;10.40;99.90
19781;DHT22;10050;55.492;13.506;2024-03-23T14:11:35;10.60;99.90
19781;DHT22;10050;55.492;13.506;2024-03-23T14:14:01;10.70;99.90
19781;DHT22;10050;55.492;13.506;2024-03-23T14:16:29;10.80;99.90
19781;DHT22;10050;55.492;13.506;2024-03-23T14:18:54;11.00;99.90
19781;DHT22;10050;55.492;13.506;2024-03-23T14:21:25;11.00;99.90
19781;DHT22;10050;55.492;13.506;2024-03-23T14:23:55;11.00;99.90
19781;DHT22;10050;55.492;13.506;2024-03-23T14:26:21;11.10;99.90
19781;DHT22;10050;55.492;13.506;2024-03-23T14:28:46;11.20;99.90
19781;DHT22;10050;55.492;13.506;2024-03-23T14:31:12;11.10;99.90
19781;DHT22;10050;55.492;13.506;2024-03-23T14:33:39;11.20;99.90
19781;DHT22;10050;55.492;13.506;2024-03-23T14:36:15;11.20;99.90
19781;DHT22;10050;55.492;13.506;2024-03-23T14:38:42;11.10;99.90
19781;DHT22;10050;55.492;13.506;2024-03-23T14:41:07;11.00;99.90
19781;DHT22;10050;55.492;13.506;2024-03-23T14:43:33;10.90;99.90
19781;DHT22;10050;55.492;13.506;2024-03-23T14:48:32;10.70;99.90
19781;DHT22;10050;55.492;13.506;2024-03-23T14:50:58;10.70;99.90
19781;DHT22;10050;55.492;13.506;2024-03-23T14:53:25;10.60;99.90
19781;DHT22;10050;55.492;13.506;2024-03-23T14:55:51;10.50;99.90
19781;DHT22;10050;55.492;13.506;2024-03-23T14:58:19;10.70;99.90
19781;DHT22;10050;55.492;13.506;2024-03-23T15:00:45;10.60;99.90
19781;DHT22;10050;55.492;13.506;2024-03-23T15:03:10;10.70;99.90
19781;DHT22;10050;55.492;13.506;2024-03-23T15:05:36;10.70;99.90
19781;DHT22;10050;55.492;13.506;2024-03-23T15:08:02;10.60;99.90
19781;DHT22;10050;55.492;13.506;2024-03-23T15:10:29;10.60;99.90
19781;DHT22;10050;55.492;13.506;2024-03-23T15:12:54;10.40;99.90
19781;DHT22;10050;55.492;13.506;2024-03-23T15:15:20;10.20;99.90
19781;DHT22;10050;55.492;13.506;2024-03-23T15:17:46;10.10;99.90
19781;DHT22;10050;55.492;13.506;2024-03-23T15:20:11;10.10;99.90
19781;DHT22;10050;55.492;13.506;2024-03-23T15:22:37;10.20;99.90
19781;DHT22;10050;55.492;13.506;2024-03-23T15:25:03;10.10;99.90
19781;DHT22;10050;55.492;13.506;2024-03-23T15:27:29;10.10;99.90
19781;DHT22;10050;55.492;13.506;2024-03-23T15:29:56;10.00;99.90
19781;DHT22;10050;55.492;13.506;2024-03-23T15:32:23;10.10;99.90
19781;DHT22;10050;55.492;13.506;2024-03-23T15:34:51;9.90;99.90
19781;DHT22;10050;55.492;13.506;2024-03-23T15:37:17;9.80;99.90
19781;DHT22;10050;55.492;13.506;2024-03-23T15:39:43;9.90;99.90
19781;DHT22;10050;55.492;13.506;2024-03-23T15:42:08;9.60;99.90
19781;DHT22;10050;55.492;13.506;2024-03-23T15:44:35;9.60;99.90
19781;DHT22;10050;55.492;13.506;2024-03-23T15:47:01;9.50;99.90
19781;DHT22;10050;55.492;13.506;2024-03-23T15:49:27;9.50;99.90
19781;DHT22;10050;55.492;13.506;2024-03-23T15:51:53;9.50;99.90
19781;DHT22;10050;55.492;13.506;2024-03-23T15:54:19;9.40;99.90
19781;DHT22;10050;55.492;13.506;2024-03-23T15:56:44;9.30;99.90
19781;DHT22;10050;55.492;13.506;2024-03-23T15:59:10;9.20;99.90
19781;DHT22;10050;55.492;13.506;2024-03-23T16:01:35;9.30;99.90
19781;DHT22;10050;55.492;13.506;2024-03-23T16:04:03;9.20;99.90
19781;DHT22;10050;55.492;13.506;2024-03-23T16:06:28;9.10;99.90
19781;DHT22;10050;55.492;13.506;2024-03-23T16:08:54;9.00;99.90
19781;DHT22;10050;55.492;13.506;2024-03-23T16:11:20;8.90;99.90
19781;DHT22;10050;55.492;13.506;2024-03-23T16:13:45;8.90;99.90
19781;DHT22;10050;55.492;13.506;2024-03-23T16:16:12;8.90;99.90
19781;DHT22;10050;55.492;13.506;2024-03-23T16:18:38;8.80;99.90
19781;DHT22;10050;55.492;13.506;2024-03-23T16:21:09;8.80;99.90
19781;DHT22;10050;55.492;13.506;2024-03-23T16:23:35;8.70;99.90
19781;DHT22;10050;55.492;13.506;2024-03-23T16:26:05;8.60;99.90
19781;DHT22;10050;55.492;13.506;2024-03-23T16:28:32;8.40;99.90
19781;DHT22;10050;55.492;13.506;2024-03-23T16:31:03;8.40;99.90
19781;DHT22;10050;55.492;13.506;2024-03-23T16:33:29;8.40;99.90